Thunder radar more information blitzortung!


Radar de pluja more information rain snow radar


Visita la nostra xarxa de llocs de meteo:

Template documentation
and downloads

And another site



No particular awareness of the weather is required.    There are no Weather-warnings

Pagina Historial Weather Underground text

Diari Resum May 8, 2017 Unitats:  Tant    Imperial   Mètric
« Previous Dia
SegĂźent Dia »
Diari Setmana Mensual Anual Personalitzada
  Maxima: Minima: Media:
Temperatura: 74.7 °F /  23.7 °C 51.3 °F /  10.7 °C 64 °F /  17.8 °C
Punt de rosada: 55.4 °F /  13.0 °C 45.3 °F /  7.4 °C 50.4 °F /  10.2 °C
Humitat: 85 % 48 % 62 %
Wind Speed: 12.5 mph /  20.1 km/h - 3.9 mph /  6.2 km/h
RĂ fegues de vent: 12.5 mph /  20.1 km/h - -
Vent:- - SSE
Pression baro: 30.1 in /  1019.9 hPa 30 in /  1014.8 hPa -
Precipitacions: 0 in /  0.0 mm    
Historical Graphs
 
 
Dades de taula per May 8, 2017
Temps Temperatura Punt de rosada Pression baro Vent Wind Speed RĂ fegues de vent Humitat Rainfall Rate (Hourly)
00:00 57 °F /  13.9 °C 49.3 °F /  9.6 °C 30.1 in /  1019.9 hPa NE 2.6 mph /  4.2 km/h 2.6 mph /  4.2 km/h 75 % 0 in /  0.0 mm
00:05 57 °F /  13.9 °C 49.3 °F /  9.6 °C 30.1 in /  1019.9 hPa NE 3.5 mph /  5.6 km/h 3.5 mph /  5.6 km/h 75 % 0 in /  0.0 mm
00:10 51.8 °F /  11.0 °C 45.9 °F /  7.7 °C 30.1 in /  1018.8 hPa SW 1 mph /  1.6 km/h 2 mph /  3.2 km/h 80 % 0 in /  0.0 mm
00:20 51.6 °F /  10.9 °C 46 °F /  7.8 °C 30.1 in /  1018.8 hPa Calm   1 mph /  1.6 km/h 81 % 0 in /  0.0 mm
00:30 51.6 °F /  10.9 °C 46.2 °F /  7.9 °C 30.1 in /  1018.8 hPa Calm     82 % 0 in /  0.0 mm
00:40 51.6 °F /  10.9 °C 46.2 °F /  7.9 °C 30.1 in /  1018.8 hPa WNW 1 mph /  1.6 km/h 1 mph /  1.6 km/h 82 % 0 in /  0.0 mm
00:50 51.4 °F /  10.8 °C 46 °F /  7.8 °C 30.1 in /  1017.8 hPa Calm     82 % 0 in /  0.0 mm
01:00 51.4 °F /  10.8 °C 46.4 °F /  8.0 °C 30.1 in /  1017.8 hPa Calm   2 mph /  3.2 km/h 83 % 0 in /  0.0 mm
01:10 51.3 °F /  10.7 °C 46 °F /  7.8 °C 30.1 in /  1017.8 hPa Calm   1 mph /  1.6 km/h 82 % 0 in /  0.0 mm
01:20 51.3 °F /  10.7 °C 46 °F /  7.8 °C 30.1 in /  1018.8 hPa SW 1 mph /  1.6 km/h 1 mph /  1.6 km/h 82 % 0 in /  0.0 mm
01:30 51.4 °F /  10.8 °C 46.4 °F /  8.0 °C 30.1 in /  1018.8 hPa Calm   1 mph /  1.6 km/h 83 % 0 in /  0.0 mm
01:40 51.4 °F /  10.8 °C 46.4 °F /  8.0 °C 30.1 in /  1018.8 hPa Calm     83 % 0 in /  0.0 mm
01:50 51.4 °F /  10.8 °C 46.8 °F /  8.2 °C 30.1 in /  1018.8 hPa Calm     84 % 0 in /  0.0 mm
02:00 51.6 °F /  10.9 °C 46.6 °F /  8.1 °C 30.1 in /  1018.8 hPa Calm     83 % 0 in /  0.0 mm
02:10 51.8 °F /  11.0 °C 47.1 °F /  8.4 °C 30.1 in /  1017.8 hPa Calm     84 % 0 in /  0.0 mm
02:20 52 °F /  11.1 °C 47.3 °F /  8.5 °C 30.1 in /  1017.8 hPa SW 1 mph /  1.6 km/h 1 mph /  1.6 km/h 84 % 0 in /  0.0 mm
02:30 52.3 °F /  11.3 °C 47.7 °F /  8.7 °C 30.1 in /  1017.8 hPa Calm   1 mph /  1.6 km/h 84 % 0 in /  0.0 mm
02:40 53.6 °F /  12.0 °C 49.3 °F /  9.6 °C 30.1 in /  1018.8 hPa Calm     85 % 0 in /  0.0 mm
02:50 54.1 °F /  12.3 °C 49.1 °F /  9.5 °C 30.1 in /  1017.8 hPa Calm     83 % 0 in /  0.0 mm
03:00 55.4 °F /  13.0 °C 50.4 °F /  10.2 °C 30.1 in /  1017.8 hPa ESE 1 mph /  1.6 km/h 1 mph /  1.6 km/h 83 % 0 in /  0.0 mm
03:10 55.2 °F /  12.9 °C 49.5 °F /  9.7 °C 30.1 in /  1018.8 hPa SSE 1 mph /  1.6 km/h 2 mph /  3.2 km/h 81 % 0 in /  0.0 mm
03:20 55.6 °F /  13.1 °C 49.5 °F /  9.7 °C 30.1 in /  1018.8 hPa South 1 mph /  1.6 km/h 2 mph /  3.2 km/h 80 % 0 in /  0.0 mm
03:30 55.6 °F /  13.1 °C 49.5 °F /  9.7 °C 30.1 in /  1018.8 hPa SSW 2 mph /  3.2 km/h 2 mph /  3.2 km/h 80 % 0 in /  0.0 mm
03:40 56.1 °F /  13.4 °C 50 °F /  10.0 °C 30.1 in /  1018.8 hPa WSW 1 mph /  1.6 km/h 2 mph /  3.2 km/h 80 % 0 in /  0.0 mm
03:50 57.4 °F /  14.1 °C 50.9 °F /  10.5 °C 30.1 in /  1018.8 hPa North 1 mph /  1.6 km/h 3 mph /  4.8 km/h 79 % 0 in /  0.0 mm
04:00 57.4 °F /  14.1 °C 50.5 °F /  10.3 °C 30.1 in /  1018.8 hPa NE 3 mph /  4.8 km/h 4 mph /  6.4 km/h 78 % 0 in /  0.0 mm
04:10 57.9 °F /  14.4 °C 50.7 °F /  10.4 °C 30.1 in /  1018.8 hPa NE 2 mph /  3.2 km/h 5 mph /  8.0 km/h 77 % 0 in /  0.0 mm
04:20 57.7 °F /  14.3 °C 49.8 °F /  9.9 °C 30.1 in /  1018.8 hPa NE 6 mph /  9.7 km/h 6 mph /  9.7 km/h 75 % 0 in /  0.0 mm
04:30 57.9 °F /  14.4 °C 50 °F /  10.0 °C 30.1 in /  1018.8 hPa ENE 5 mph /  8.0 km/h 6 mph /  9.7 km/h 75 % 0 in /  0.0 mm
04:40 57.7 °F /  14.3 °C 49.8 °F /  9.9 °C 30.1 in /  1018.8 hPa NE 3 mph /  4.8 km/h 8 mph /  12.9 km/h 75 % 0 in /  0.0 mm
04:50 58.8 °F /  14.9 °C 50.5 °F /  10.3 °C 30.1 in /  1018.8 hPa ENE 3 mph /  4.8 km/h 4 mph /  6.4 km/h 74 % 0 in /  0.0 mm
05:00 59.9 °F /  15.5 °C 51.3 °F /  10.7 °C 30.1 in /  1018.8 hPa NE 3 mph /  4.8 km/h 4 mph /  6.4 km/h 73 % 0 in /  0.0 mm
05:10 59.9 °F /  15.5 °C 51.3 °F /  10.7 °C 30.1 in /  1018.8 hPa NE 5 mph /  8.0 km/h 5 mph /  8.0 km/h 73 % 0 in /  0.0 mm
10:16 60.3 °F /  15.7 °C 50.7 °F /  10.4 °C 30.1 in /  1018.8 hPa NE 4.6 mph /  7.4 km/h 4.6 mph /  7.4 km/h 71 % 0 in /  0.0 mm
10:21 60.1 °F /  15.6 °C 50.4 °F /  10.2 °C 30.1 in /  1018.8 hPa NNE 4.6 mph /  7.4 km/h 4.6 mph /  7.4 km/h 70 % 0 in /  0.0 mm
10:26 61.5 °F /  16.4 °C 52 °F /  11.1 °C 30.1 in /  1018.8 hPa West 3.5 mph /  5.6 km/h 3.5 mph /  5.6 km/h 71 % 0 in /  0.0 mm
10:31 62.6 °F /  17.0 °C 52.3 °F /  11.3 °C 30.1 in /  1018.8 hPa NE 3.6 mph /  5.8 km/h 3.6 mph /  5.8 km/h 69 % 0 in /  0.0 mm
10:36 63 °F /  17.2 °C 52.2 °F /  11.2 °C 30.1 in /  1018.8 hPa NW 3.5 mph /  5.6 km/h 3.5 mph /  5.6 km/h 68 % 0 in /  0.0 mm
10:41 63.1 °F /  17.3 °C 52 °F /  11.1 °C 30.1 in /  1018.8 hPa ENE 3.8 mph /  6.1 km/h 3.8 mph /  6.1 km/h 67 % 0 in /  0.0 mm
10:46 62.8 °F /  17.1 °C 51.6 °F /  10.9 °C 30.1 in /  1018.8 hPa North 4.6 mph /  7.4 km/h 4.6 mph /  7.4 km/h 67 % 0 in /  0.0 mm
10:47 62.8 °F /  17.1 °C 51.6 °F /  10.9 °C 30.1 in /  1018.8 hPa WNW 4.6 mph /  7.4 km/h 4.6 mph /  7.4 km/h 67 % 0 in /  0.0 mm
10:52 63.1 °F /  17.3 °C 51.6 °F /  10.9 °C 30.1 in /  1018.8 hPa NNE 4.7 mph /  7.6 km/h 4.7 mph /  7.6 km/h 66 % 0 in /  0.0 mm
10:57 63.3 °F /  17.4 °C 51.8 °F /  11.0 °C 30.1 in /  1018.8 hPa NW 3.5 mph /  5.6 km/h 3.5 mph /  5.6 km/h 66 % 0 in /  0.0 mm
11:02 64 °F /  17.8 °C 52 °F /  11.1 °C 30.1 in /  1018.8 hPa NW 3.5 mph /  5.6 km/h 3.5 mph /  5.6 km/h 65 % 0 in /  0.0 mm
11:07 64.9 °F /  18.3 °C 53.2 °F /  11.8 °C 30.1 in /  1018.8 hPa NW 2.3 mph /  3.7 km/h 2.3 mph /  3.7 km/h 66 % 0 in /  0.0 mm
11:12 64.9 °F /  18.3 °C 52 °F /  11.1 °C 30.1 in /  1018.8 hPa East 6.9 mph /  11.1 km/h 6.9 mph /  11.1 km/h 63 % 0 in /  0.0 mm
11:17 64.9 °F /  18.3 °C 52.5 °F /  11.4 °C 30.1 in /  1018.8 hPa ENE 4.6 mph /  7.4 km/h 4.6 mph /  7.4 km/h 64 % 0 in /  0.0 mm
11:22 65.5 °F /  18.6 °C 52.5 °F /  11.4 °C 30.1 in /  1018.8 hPa ENE 4.6 mph /  7.4 km/h 4.6 mph /  7.4 km/h 63 % 0 in /  0.0 mm
11:27 65.8 °F /  18.8 °C 52.9 °F /  11.6 °C 30.1 in /  1018.8 hPa ENE 4.6 mph /  7.4 km/h 4.6 mph /  7.4 km/h 63 % 0 in /  0.0 mm
11:32 65.7 °F /  18.7 °C 52.3 °F /  11.3 °C 30.1 in /  1018.8 hPa ESE 4.6 mph /  7.4 km/h 4.6 mph /  7.4 km/h 62 % 0 in /  0.0 mm
11:37 66.2 °F /  19.0 °C 52.3 °F /  11.3 °C 30.1 in /  1018.8 hPa NE 3.5 mph /  5.6 km/h 3.5 mph /  5.6 km/h 61 % 0 in /  0.0 mm
11:42 66.7 °F /  19.3 °C 52.9 °F /  11.6 °C 30.1 in /  1018.8 hPa SSW 3.5 mph /  5.6 km/h 3.5 mph /  5.6 km/h 61 % 0 in /  0.0 mm
11:47 68.4 °F /  20.2 °C 54 °F /  12.2 °C 30.1 in /  1018.8 hPa SW 3.5 mph /  5.6 km/h 3.5 mph /  5.6 km/h 60 % 0 in /  0.0 mm
11:52 67.8 °F /  19.9 °C 52.5 °F /  11.4 °C 30.1 in /  1018.8 hPa SW 2.3 mph /  3.7 km/h 2.3 mph /  3.7 km/h 58 % 0 in /  0.0 mm
11:57 68.4 °F /  20.2 °C 53.4 °F /  11.9 °C 30.1 in /  1018.8 hPa West 3.3 mph /  5.3 km/h 3.3 mph /  5.3 km/h 59 % 0 in /  0.0 mm
12:02 68.9 °F /  20.5 °C 53.4 °F /  11.9 °C 30.1 in /  1018.8 hPa SW 3.5 mph /  5.6 km/h 3.5 mph /  5.6 km/h 58 % 0 in /  0.0 mm
12:07 69.8 °F /  21.0 °C 54 °F /  12.2 °C 30.1 in /  1018.8 hPa WSW 2.3 mph /  3.7 km/h 2.4 mph /  3.9 km/h 57 % 0 in /  0.0 mm
12:12 69.1 °F /  20.6 °C 53.2 °F /  11.8 °C 30.1 in /  1017.8 hPa SW 4.6 mph /  7.4 km/h 4.6 mph /  7.4 km/h 57 % 0 in /  0.0 mm
12:17 70 °F /  21.1 °C 54 °F /  12.2 °C 30.1 in /  1017.8 hPa NNW 2.6 mph /  4.2 km/h 2.6 mph /  4.2 km/h 57 % 0 in /  0.0 mm
12:22 70.7 °F /  21.5 °C 53.8 °F /  12.1 °C 30.1 in /  1017.8 hPa ENE 3.3 mph /  5.3 km/h 3.3 mph /  5.3 km/h 55 % 0 in /  0.0 mm
12:23 70.3 °F /  21.3 °C 53.4 °F /  11.9 °C 30.1 in /  1017.8 hPa SE 4.9 mph /  7.9 km/h 4.9 mph /  7.9 km/h 55 % 0 in /  0.0 mm
12:28 69.6 °F /  20.9 °C 52.7 °F /  11.5 °C 30.1 in /  1017.8 hPa NE 3.5 mph /  5.6 km/h 3.5 mph /  5.6 km/h 55 % 0 in /  0.0 mm
12:33 70.9 °F /  21.6 °C 52.9 °F /  11.6 °C 30.1 in /  1017.8 hPa SE 6.9 mph /  11.1 km/h 6.9 mph /  11.1 km/h 53 % 0 in /  0.0 mm
12:38 71.2 °F /  21.8 °C 53.2 °F /  11.8 °C 30.1 in /  1017.8 hPa ESE 3.5 mph /  5.6 km/h 3.5 mph /  5.6 km/h 53 % 0 in /  0.0 mm
12:43 71.1 °F /  21.7 °C 54.1 °F /  12.3 °C 30 in /  1016.8 hPa West 3.5 mph /  5.6 km/h 3.5 mph /  5.6 km/h 55 % 0 in /  0.0 mm
12:48 71.2 °F /  21.8 °C 53.8 °F /  12.1 °C 30 in /  1016.8 hPa South 3.5 mph /  5.6 km/h 3.5 mph /  5.6 km/h 54 % 0 in /  0.0 mm
12:53 71.8 °F /  22.1 °C 53.2 °F /  11.8 °C 30 in /  1016.8 hPa South 3.5 mph /  5.6 km/h 3.5 mph /  5.6 km/h 52 % 0 in /  0.0 mm
12:58 70.7 °F /  21.5 °C 51.6 °F /  10.9 °C 30.1 in /  1017.8 hPa ESE 6.9 mph /  11.1 km/h 6.9 mph /  11.1 km/h 51 % 0 in /  0.0 mm
13:03 70.2 °F /  21.2 °C 51.3 °F /  10.7 °C 30.1 in /  1017.8 hPa ESE 5.6 mph /  9.0 km/h 5.6 mph /  9.0 km/h 51 % 0 in /  0.0 mm
13:08 70 °F /  21.1 °C 51.1 °F /  10.6 °C 30.1 in /  1017.8 hPa NE 5.8 mph /  9.3 km/h 5.8 mph /  9.3 km/h 51 % 0 in /  0.0 mm
13:13 71.1 °F /  21.7 °C 52 °F /  11.1 °C 30.1 in /  1017.8 hPa SSE 3.8 mph /  6.1 km/h 3.8 mph /  6.1 km/h 51 % 0 in /  0.0 mm
13:18 72.9 °F /  22.7 °C 53.8 °F /  12.1 °C 30.1 in /  1017.8 hPa SSE 4.6 mph /  7.4 km/h 4.6 mph /  7.4 km/h 51 % 0 in /  0.0 mm
13:23 73.4 °F /  23.0 °C 53.1 °F /  11.7 °C 30.1 in /  1017.8 hPa South 2.9 mph /  4.7 km/h 2.9 mph /  4.7 km/h 49 % 0 in /  0.0 mm
13:28 71.6 °F /  22.0 °C 51.4 °F /  10.8 °C 30.1 in /  1017.8 hPa South 5.8 mph /  9.3 km/h 5.8 mph /  9.3 km/h 49 % 0 in /  0.0 mm
13:33 72 °F /  22.2 °C 51.8 °F /  11.0 °C 30.1 in /  1017.8 hPa SE 4.6 mph /  7.4 km/h 4.6 mph /  7.4 km/h 49 % 0 in /  0.0 mm
13:38 72.3 °F /  22.4 °C 52.5 °F /  11.4 °C 30.1 in /  1017.8 hPa SW 1.2 mph /  1.9 km/h   50 % 0 in /  0.0 mm
13:43 74.1 °F /  23.4 °C 53.2 °F /  11.8 °C 30 in /  1016.8 hPa South 2.3 mph /  3.7 km/h 2.3 mph /  3.7 km/h 48 % 0 in /  0.0 mm
13:48 74.7 °F /  23.7 °C 53.8 °F /  12.1 °C 30 in /  1016.8 hPa ESE 3.6 mph /  5.8 km/h 3.6 mph /  5.8 km/h 48 % 0 in /  0.0 mm
13:53 73.2 °F /  22.9 °C 52.3 °F /  11.3 °C 30 in /  1016.8 hPa ESE 4.3 mph /  6.9 km/h 4.3 mph /  6.9 km/h 48 % 0 in /  0.0 mm
13:58 73.6 °F /  23.1 °C 52.7 °F /  11.5 °C 30 in /  1016.8 hPa ESE 4.9 mph /  7.9 km/h 4.9 mph /  7.9 km/h 48 % 0 in /  0.0 mm
14:03 72 °F /  22.2 °C 52.3 °F /  11.3 °C 30 in /  1016.8 hPa ESE 6 mph /  9.7 km/h 6 mph /  9.7 km/h 50 % 0 in /  0.0 mm
14:08 71.8 °F /  22.1 °C 52.7 °F /  11.5 °C 30 in /  1016.8 hPa ENE 9.2 mph /  14.8 km/h 9.2 mph /  14.8 km/h 51 % 0 in /  0.0 mm
14:13 71.4 °F /  21.9 °C 52.3 °F /  11.3 °C 30 in /  1015.8 hPa ESE 8.5 mph /  13.7 km/h 8.5 mph /  13.7 km/h 51 % 0 in /  0.0 mm
14:18 71.2 °F /  21.8 °C 52.7 °F /  11.5 °C 30 in /  1015.8 hPa ESE 4.6 mph /  7.4 km/h 4.6 mph /  7.4 km/h 52 % 0 in /  0.0 mm
14:23 72 °F /  22.2 °C 54 °F /  12.2 °C 30 in /  1015.8 hPa ENE 6.7 mph /  10.8 km/h 6.7 mph /  10.8 km/h 53 % 0 in /  0.0 mm
14:28 71.1 °F /  21.7 °C 53.1 °F /  11.7 °C 30 in /  1015.8 hPa ESE 9.2 mph /  14.8 km/h 9.2 mph /  14.8 km/h 53 % 0 in /  0.0 mm
14:33 71.1 °F /  21.7 °C 53.1 °F /  11.7 °C 30 in /  1015.8 hPa ESE 2.3 mph /  3.7 km/h 2.3 mph /  3.7 km/h 53 % 0 in /  0.0 mm
14:38 71.2 °F /  21.8 °C 53.2 °F /  11.8 °C 30 in /  1015.8 hPa SE 9.2 mph /  14.8 km/h 9.2 mph /  14.8 km/h 53 % 0 in /  0.0 mm
14:43 71.4 °F /  21.9 °C 54 °F /  12.2 °C 30 in /  1014.8 hPa ESE 8.1 mph /  13.0 km/h 8.1 mph /  13.0 km/h 54 % 0 in /  0.0 mm
14:48 71.6 °F /  22.0 °C 54.1 °F /  12.3 °C 30 in /  1014.8 hPa ENE 7.6 mph /  12.2 km/h 7.6 mph /  12.2 km/h 54 % 0 in /  0.0 mm
14:53 71.4 °F /  21.9 °C 54.3 °F /  12.4 °C 30 in /  1014.8 hPa SE 10.4 mph /  16.7 km/h 10.4 mph /  16.7 km/h 55 % 0 in /  0.0 mm
14:58 71.1 °F /  21.7 °C 54.1 °F /  12.3 °C 30 in /  1015.8 hPa East 10.4 mph /  16.7 km/h 10.4 mph /  16.7 km/h 55 % 0 in /  0.0 mm
15:03 71.1 °F /  21.7 °C 54.1 °F /  12.3 °C 30 in /  1015.8 hPa ESE 8.1 mph /  13.0 km/h 8.1 mph /  13.0 km/h 55 % 0 in /  0.0 mm
15:08 70.9 °F /  21.6 °C 54 °F /  12.2 °C 30 in /  1015.8 hPa NE 10.4 mph /  16.7 km/h 10.4 mph /  16.7 km/h 55 % 0 in /  0.0 mm
15:13 71.4 °F /  21.9 °C 54.3 °F /  12.4 °C 30 in /  1015.8 hPa ENE 8.7 mph /  14.0 km/h 8.7 mph /  14.0 km/h 55 % 0 in /  0.0 mm
15:18 72.1 °F /  22.3 °C 55 °F /  12.8 °C 30 in /  1015.8 hPa East 9.2 mph /  14.8 km/h 9.2 mph /  14.8 km/h 55 % 0 in /  0.0 mm
15:23 71.4 °F /  21.9 °C 55.4 °F /  13.0 °C 30 in /  1015.8 hPa NE 10.4 mph /  16.7 km/h 10.4 mph /  16.7 km/h 57 % 0 in /  0.0 mm
15:28 71.1 °F /  21.7 °C 55 °F /  12.8 °C 30 in /  1015.8 hPa West 6.9 mph /  11.1 km/h 6.9 mph /  11.1 km/h 57 % 0 in /  0.0 mm
15:33 70.7 °F /  21.5 °C 54.7 °F /  12.6 °C 30 in /  1015.8 hPa NNE 10.5 mph /  16.9 km/h 10.5 mph /  16.9 km/h 57 % 0 in /  0.0 mm
15:38 70.9 °F /  21.6 °C 54.9 °F /  12.7 °C 30 in /  1015.8 hPa SSE 10.4 mph /  16.7 km/h 10.4 mph /  16.7 km/h 57 % 0 in /  0.0 mm
15:43 70.7 °F /  21.5 °C 54.7 °F /  12.6 °C 30 in /  1014.8 hPa ENE 10.4 mph /  16.7 km/h 10.4 mph /  16.7 km/h 57 % 0 in /  0.0 mm
15:48 70.3 °F /  21.3 °C 54.3 °F /  12.4 °C 30 in /  1014.8 hPa SE 10.4 mph /  16.7 km/h 10.4 mph /  16.7 km/h 57 % 0 in /  0.0 mm
15:53 70.2 °F /  21.2 °C 54.7 °F /  12.6 °C 30 in /  1014.8 hPa ENE 8.1 mph /  13.0 km/h 8.1 mph /  13.0 km/h 58 % 0 in /  0.0 mm
15:58 70.5 °F /  21.4 °C 54.5 °F /  12.5 °C 30 in /  1015.8 hPa ESE 8.1 mph /  13.0 km/h 8.1 mph /  13.0 km/h 57 % 0 in /  0.0 mm
16:00 70.5 °F /  21.4 °C 54.5 °F /  12.5 °C 30 in /  1015.8 hPa SE 12.5 mph /  20.1 km/h 12.5 mph /  20.1 km/h 57 % 0 in /  0.0 mm
16:05 70.2 °F /  21.2 °C 54.1 °F /  12.3 °C 30 in /  1015.8 hPa NNE 8.1 mph /  13.0 km/h 8.1 mph /  13.0 km/h 57 % 0 in /  0.0 mm
16:10 70.2 °F /  21.2 °C 54.1 °F /  12.3 °C 30 in /  1015.8 hPa East 6.9 mph /  11.1 km/h 6.9 mph /  11.1 km/h 57 % 0 in /  0.0 mm
16:15 71.1 °F /  21.7 °C 55 °F /  12.8 °C 30 in /  1015.8 hPa SE 5.8 mph /  9.3 km/h 5.8 mph /  9.3 km/h 57 % 0 in /  0.0 mm
16:20 70.9 °F /  21.6 °C 54.9 °F /  12.7 °C 30 in /  1015.8 hPa SE 4.9 mph /  7.9 km/h 4.9 mph /  7.9 km/h 57 % 0 in /  0.0 mm
16:25 70.7 °F /  21.5 °C 54.7 °F /  12.6 °C 30 in /  1015.8 hPa ESE 10.4 mph /  16.7 km/h 10.4 mph /  16.7 km/h 57 % 0 in /  0.0 mm
16:30 70.3 °F /  21.3 °C 54.3 °F /  12.4 °C 30 in /  1015.8 hPa ENE 9.2 mph /  14.8 km/h 9.2 mph /  14.8 km/h 57 % 0 in /  0.0 mm
16:35 70.2 °F /  21.2 °C 54.1 °F /  12.3 °C 30 in /  1015.8 hPa East 5.8 mph /  9.3 km/h 5.8 mph /  9.3 km/h 57 % 0 in /  0.0 mm
16:40 69.8 °F /  21.0 °C 54 °F /  12.2 °C 30 in /  1015.8 hPa ESE 6.9 mph /  11.1 km/h 6.9 mph /  11.1 km/h 57 % 0 in /  0.0 mm
16:45 69.8 °F /  21.0 °C 54 °F /  12.2 °C 30 in /  1014.8 hPa ENE 6.9 mph /  11.1 km/h 6.9 mph /  11.1 km/h 57 % 0 in /  0.0 mm
16:50 69.8 °F /  21.0 °C 54 °F /  12.2 °C 30 in /  1014.8 hPa NNE 6.9 mph /  11.1 km/h 6.9 mph /  11.1 km/h 57 % 0 in /  0.0 mm
16:55 69.4 °F /  20.8 °C 54 °F /  12.2 °C 30 in /  1014.8 hPa East 6.9 mph /  11.1 km/h 6.9 mph /  11.1 km/h 58 % 0 in /  0.0 mm
17:00 69.4 °F /  20.8 °C 54 °F /  12.2 °C 30 in /  1014.8 hPa East 5.8 mph /  9.3 km/h 5.8 mph /  9.3 km/h 58 % 0 in /  0.0 mm
17:05 69.1 °F /  20.6 °C 53.8 °F /  12.1 °C 30 in /  1014.8 hPa ESE 6.9 mph /  11.1 km/h 6.9 mph /  11.1 km/h 58 % 0 in /  0.0 mm
17:10 68.5 °F /  20.3 °C 53.2 °F /  11.8 °C 30 in /  1014.8 hPa NNW 9.2 mph /  14.8 km/h 9.2 mph /  14.8 km/h 58 % 0 in /  0.0 mm
17:15 68.5 °F /  20.3 °C 53.6 °F /  12.0 °C 30 in /  1014.8 hPa ESE 11.5 mph /  18.5 km/h 11.5 mph /  18.5 km/h 59 % 0 in /  0.0 mm
17:21 68.7 °F /  20.4 °C 53.8 °F /  12.1 °C 30 in /  1014.8 hPa East 5.8 mph /  9.3 km/h 5.8 mph /  9.3 km/h 59 % 0 in /  0.0 mm
17:26 68.9 °F /  20.5 °C 54 °F /  12.2 °C 30 in /  1014.8 hPa ESE 8.1 mph /  13.0 km/h 8.1 mph /  13.0 km/h 59 % 0 in /  0.0 mm
17:31 68.7 °F /  20.4 °C 53.8 °F /  12.1 °C 30 in /  1014.8 hPa ENE 9.2 mph /  14.8 km/h 9.2 mph /  14.8 km/h 59 % 0 in /  0.0 mm
17:36 68.7 °F /  20.4 °C 53.8 °F /  12.1 °C 30 in /  1014.8 hPa ESE 5.8 mph /  9.3 km/h 5.8 mph /  9.3 km/h 59 % 0 in /  0.0 mm
17:41 68.7 °F /  20.4 °C 53.8 °F /  12.1 °C 30 in /  1014.8 hPa ENE 8.1 mph /  13.0 km/h 8.1 mph /  13.0 km/h 59 % 0 in /  0.0 mm
17:46 68.2 °F /  20.1 °C 53.2 °F /  11.8 °C 30 in /  1014.8 hPa ESE 8.1 mph /  13.0 km/h 8.1 mph /  13.0 km/h 59 % 0 in /  0.0 mm
17:51 68.2 °F /  20.1 °C 53.2 °F /  11.8 °C 30 in /  1014.8 hPa ENE 8.1 mph /  13.0 km/h 8.1 mph /  13.0 km/h 59 % 0 in /  0.0 mm
17:56 67.8 °F /  19.9 °C 53.4 °F /  11.9 °C 30 in /  1014.8 hPa ENE 5.8 mph /  9.3 km/h 5.8 mph /  9.3 km/h 60 % 0 in /  0.0 mm
18:02 68 °F /  20.0 °C 53.1 °F /  11.7 °C 30 in /  1014.8 hPa North 6.9 mph /  11.1 km/h 6.9 mph /  11.1 km/h 59 % 0 in /  0.0 mm
18:07 67.6 °F /  19.8 °C 53.2 °F /  11.8 °C 30 in /  1014.8 hPa ESE 5.8 mph /  9.3 km/h 5.8 mph /  9.3 km/h 60 % 0 in /  0.0 mm
18:12 67.8 °F /  19.9 °C 53.1 °F /  11.7 °C 30 in /  1014.8 hPa ESE 6.9 mph /  11.1 km/h 6.9 mph /  11.1 km/h 59 % 0 in /  0.0 mm
18:17 68 °F /  20.0 °C 52.7 °F /  11.5 °C 30 in /  1014.8 hPa ESE 9.2 mph /  14.8 km/h 9.2 mph /  14.8 km/h 58 % 0 in /  0.0 mm
18:22 68 °F /  20.0 °C 52.7 °F /  11.5 °C 30 in /  1014.8 hPa East 5.8 mph /  9.3 km/h 5.8 mph /  9.3 km/h 58 % 0 in /  0.0 mm
18:27 67.8 °F /  19.9 °C 53.1 °F /  11.7 °C 30 in /  1014.8 hPa ESE 10 mph /  16.1 km/h 10 mph /  16.1 km/h 59 % 0 in /  0.0 mm
18:32 67.6 °F /  19.8 °C 52.9 °F /  11.6 °C 30 in /  1014.8 hPa SSE 8.1 mph /  13.0 km/h 8.1 mph /  13.0 km/h 59 % 0 in /  0.0 mm
18:37 67.6 °F /  19.8 °C 52.9 °F /  11.6 °C 30 in /  1014.8 hPa East 5.8 mph /  9.3 km/h 5.8 mph /  9.3 km/h 59 % 0 in /  0.0 mm
18:42 67.3 °F /  19.6 °C 52 °F /  11.1 °C 30 in /  1014.8 hPa East 5.8 mph /  9.3 km/h 5.8 mph /  9.3 km/h 58 % 0 in /  0.0 mm
18:47 67.1 °F /  19.5 °C 51.8 °F /  11.0 °C 30 in /  1014.8 hPa ESE 5.8 mph /  9.3 km/h 5.8 mph /  9.3 km/h 58 % 0 in /  0.0 mm
18:52 67.1 °F /  19.5 °C 51.8 °F /  11.0 °C 30 in /  1014.8 hPa SSE 5.8 mph /  9.3 km/h 5.8 mph /  9.3 km/h 58 % 0 in /  0.0 mm
18:57 67.1 °F /  19.5 °C 52.3 °F /  11.3 °C 30 in /  1014.8 hPa SSE 3.5 mph /  5.6 km/h 3.5 mph /  5.6 km/h 59 % 0 in /  0.0 mm
19:02 67.1 °F /  19.5 °C 51.8 °F /  11.0 °C 30 in /  1014.8 hPa ESE 3.6 mph /  5.8 km/h 3.6 mph /  5.8 km/h 58 % 0 in /  0.0 mm
19:07 66.9 °F /  19.4 °C 51.6 °F /  10.9 °C 30 in /  1014.8 hPa WSW 3.5 mph /  5.6 km/h 3.5 mph /  5.6 km/h 58 % 0 in /  0.0 mm
19:12 67.1 °F /  19.5 °C 51.4 °F /  10.8 °C 30 in /  1014.8 hPa SW 3.5 mph /  5.6 km/h 3.5 mph /  5.6 km/h 57 % 0 in /  0.0 mm
19:17 67.1 °F /  19.5 °C 50.9 °F /  10.5 °C 30 in /  1014.8 hPa SSW 2.3 mph /  3.7 km/h 2.3 mph /  3.7 km/h 56 % 0 in /  0.0 mm
19:20 57.7 °F /  14.3 °C 46 °F /  7.8 °C 30 in /  1015.8 hPa Calm     65 % 0 in /  0.0 mm
19:22 66.9 °F /  19.4 °C 50.7 °F /  10.4 °C 30 in /  1014.8 hPa WNW 1.2 mph /  1.9 km/h   56 % 0 in /  0.0 mm
19:27 66.7 °F /  19.3 °C 50.5 °F /  10.3 °C 30 in /  1014.8 hPa SW 1.2 mph /  1.9 km/h   56 % 0 in /  0.0 mm
19:30 57.7 °F /  14.3 °C 46 °F /  7.8 °C 30 in /  1015.8 hPa Calm     65 % 0 in /  0.0 mm
19:32 66.7 °F /  19.3 °C 50.2 °F /  10.1 °C 30 in /  1014.8 hPa West 2.3 mph /  3.7 km/h 2.3 mph /  3.7 km/h 55 % 0 in /  0.0 mm
19:37 66.6 °F /  19.2 °C 49.8 °F /  9.9 °C 30 in /  1014.8 hPa WSW 2.3 mph /  3.7 km/h 2.3 mph /  3.7 km/h 55 % 0 in /  0.0 mm
19:40 57.4 °F /  14.1 °C 46 °F /  7.8 °C 30 in /  1015.8 hPa Calm     66 % 0 in /  0.0 mm
19:42 66.6 °F /  19.2 °C 49.8 °F /  9.9 °C 30 in /  1014.8 hPa South 4.6 mph /  7.4 km/h 4.6 mph /  7.4 km/h 55 % 0 in /  0.0 mm
19:47 66.4 °F /  19.1 °C 49.3 °F /  9.6 °C 30 in /  1014.8 hPa SW 3.5 mph /  5.6 km/h 3.5 mph /  5.6 km/h 54 % 0 in /  0.0 mm
19:50 57 °F /  13.9 °C 45.9 °F /  7.7 °C 30 in /  1015.8 hPa Calm     66 % 0 in /  0.0 mm
19:52 66 °F /  18.9 °C 48.9 °F /  9.4 °C 30 in /  1014.8 hPa WSW 6.4 mph /  10.3 km/h 6.4 mph /  10.3 km/h 54 % 0 in /  0.0 mm
19:57 65.5 °F /  18.6 °C 48.4 °F /  9.1 °C 30 in /  1014.8 hPa SW 5.8 mph /  9.3 km/h 5.8 mph /  9.3 km/h 54 % 0 in /  0.0 mm
20:00 56.7 °F /  13.7 °C 45.9 °F /  7.7 °C 30 in /  1015.8 hPa Calm     67 % 0 in /  0.0 mm
20:02 64.9 °F /  18.3 °C 47.5 °F /  8.6 °C 30 in /  1014.8 hPa West 4.6 mph /  7.4 km/h 4.6 mph /  7.4 km/h 53 % 0 in /  0.0 mm
20:08 64.8 °F /  18.2 °C 47.1 °F /  8.4 °C 30 in /  1014.8 hPa SW 4.6 mph /  7.4 km/h 4.6 mph /  7.4 km/h 53 % 0 in /  0.0 mm
20:10 56.5 °F /  13.6 °C 45.7 °F /  7.6 °C 30 in /  1015.8 hPa Calm     67 % 0 in /  0.0 mm
20:13 64.4 °F /  18.0 °C 46.9 °F /  8.3 °C 30 in /  1015.8 hPa West 3.5 mph /  5.6 km/h 3.5 mph /  5.6 km/h 53 % 0 in /  0.0 mm
20:18 64.4 °F /  18.0 °C 46.9 °F /  8.3 °C 30 in /  1015.8 hPa SW 3.5 mph /  5.6 km/h 3.5 mph /  5.6 km/h 53 % 0 in /  0.0 mm
20:20 56.5 °F /  13.6 °C 46 °F /  7.8 °C 30 in /  1015.8 hPa Calm     68 % 0 in /  0.0 mm
20:23 64 °F /  17.8 °C 46.6 °F /  8.1 °C 30 in /  1015.8 hPa West 2.3 mph /  3.7 km/h 2.3 mph /  3.7 km/h 53 % 0 in /  0.0 mm
20:28 63.9 °F /  17.7 °C 46.4 °F /  8.0 °C 30 in /  1015.8 hPa SW 3.5 mph /  5.6 km/h 3.5 mph /  5.6 km/h 53 % 0 in /  0.0 mm
20:30 56.3 °F /  13.5 °C 46.2 °F /  7.9 °C 30 in /  1015.8 hPa Calm     69 % 0 in /  0.0 mm
20:33 63.5 °F /  17.5 °C 46 °F /  7.8 °C 30 in /  1015.8 hPa SW 3.6 mph /  5.8 km/h 3.6 mph /  5.8 km/h 53 % 0 in /  0.0 mm
20:38 63.3 °F /  17.4 °C 45.9 °F /  7.7 °C 30 in /  1015.8 hPa SW 3.5 mph /  5.6 km/h 3.5 mph /  5.6 km/h 53 % 0 in /  0.0 mm
20:40 56.1 °F /  13.4 °C 46 °F /  7.8 °C 30 in /  1015.8 hPa Calm     69 % 0 in /  0.0 mm
20:43 63.1 °F /  17.3 °C 45.7 °F /  7.6 °C 30 in /  1015.8 hPa SW 3.5 mph /  5.6 km/h 3.5 mph /  5.6 km/h 53 % 0 in /  0.0 mm
20:48 62.8 °F /  17.1 °C 45.9 °F /  7.7 °C 30 in /  1015.8 hPa WSW 4.6 mph /  7.4 km/h 4.6 mph /  7.4 km/h 54 % 0 in /  0.0 mm
20:50 55.8 °F /  13.2 °C 45.7 °F /  7.6 °C 30 in /  1015.8 hPa NE 1 mph /  1.6 km/h 2 mph /  3.2 km/h 69 % 0 in /  0.0 mm
20:53 62.6 °F /  17.0 °C 45.7 °F /  7.6 °C 30 in /  1015.8 hPa WSW 3.5 mph /  5.6 km/h 3.5 mph /  5.6 km/h 54 % 0 in /  0.0 mm
20:58 62.4 °F /  16.9 °C 46 °F /  7.8 °C 30 in /  1015.8 hPa WSW 5.8 mph /  9.3 km/h 5.8 mph /  9.3 km/h 55 % 0 in /  0.0 mm
21:00 55.6 °F /  13.1 °C 45.7 °F /  7.6 °C 30 in /  1015.8 hPa NE 1 mph /  1.6 km/h 2 mph /  3.2 km/h 69 % 0 in /  0.0 mm
21:03 62.2 °F /  16.8 °C 45.9 °F /  7.7 °C 30 in /  1015.8 hPa WSW 4.6 mph /  7.4 km/h 4.6 mph /  7.4 km/h 55 % 0 in /  0.0 mm
21:08 62.1 °F /  16.7 °C 45.7 °F /  7.6 °C 30 in /  1015.8 hPa SW 3.5 mph /  5.6 km/h 3.5 mph /  5.6 km/h 55 % 0 in /  0.0 mm
21:10 55.4 °F /  13.0 °C 45.9 °F /  7.7 °C 30 in /  1015.8 hPa Calm   1 mph /  1.6 km/h 70 % 0 in /  0.0 mm
21:13 61.9 °F /  16.6 °C 46 °F /  7.8 °C 30 in /  1015.8 hPa SW 2 mph /  3.2 km/h 2 mph /  3.2 km/h 56 % 0 in /  0.0 mm
21:18 61.9 °F /  16.6 °C 46 °F /  7.8 °C 30 in /  1015.8 hPa SW 2.4 mph /  3.9 km/h 2.4 mph /  3.9 km/h 56 % 0 in /  0.0 mm
21:20 55 °F /  12.8 °C 45.3 °F /  7.4 °C 30 in /  1014.8 hPa NNE 1 mph /  1.6 km/h 2 mph /  3.2 km/h 70 % 0 in /  0.0 mm
21:23 61.7 °F /  16.5 °C 46.2 °F /  7.9 °C 30 in /  1015.8 hPa West 2.3 mph /  3.7 km/h 2.3 mph /  3.7 km/h 57 % 0 in /  0.0 mm
21:28 61.5 °F /  16.4 °C 46 °F /  7.8 °C 30 in /  1015.8 hPa WSW 2.3 mph /  3.7 km/h 2.3 mph /  3.7 km/h 57 % 0 in /  0.0 mm
21:30 54.7 °F /  12.6 °C 45.5 °F /  7.5 °C 30 in /  1014.8 hPa NE 1 mph /  1.6 km/h 1 mph /  1.6 km/h 71 % 0 in /  0.0 mm
21:34 61.5 °F /  16.4 °C 46 °F /  7.8 °C 30 in /  1015.8 hPa WSW 2.4 mph /  3.9 km/h 2.4 mph /  3.9 km/h 57 % 0 in /  0.0 mm
21:39 61.3 °F /  16.3 °C 46.4 °F /  8.0 °C 30 in /  1015.8 hPa SW 2.9 mph /  4.7 km/h 2.9 mph /  4.7 km/h 58 % 0 in /  0.0 mm
21:40 54.5 °F /  12.5 °C 45.3 °F /  7.4 °C 30 in /  1014.8 hPa Calm   1 mph /  1.6 km/h 71 % 0 in /  0.0 mm
21:44 61.2 °F /  16.2 °C 46.2 °F /  7.9 °C 30 in /  1015.8 hPa WSW 2.4 mph /  3.9 km/h 2.4 mph /  3.9 km/h 58 % 0 in /  0.0 mm
21:49 61.2 °F /  16.2 °C 46.8 °F /  8.2 °C 30 in /  1015.8 hPa West 1.2 mph /  1.9 km/h 1.2 mph /  1.9 km/h 59 % 0 in /  0.0 mm
21:50 61.2 °F /  16.2 °C 46.8 °F /  8.2 °C 30 in /  1015.8 hPa West 1.2 mph /  1.9 km/h   59 % 0 in /  0.0 mm
21:55 61 °F /  16.1 °C 46.6 °F /  8.1 °C 30 in /  1015.8 hPa WSW 2.3 mph /  3.7 km/h 2.3 mph /  3.7 km/h 59 % 0 in /  0.0 mm
22:00 60.8 °F /  16.0 °C 46.4 °F /  8.0 °C 30 in /  1014.8 hPa West 1.6 mph /  2.6 km/h 1.6 mph /  2.6 km/h 59 % 0 in /  0.0 mm
22:05 60.8 °F /  16.0 °C 46.8 °F /  8.2 °C 30 in /  1014.8 hPa WSW 1.2 mph /  1.9 km/h   60 % 0 in /  0.0 mm
22:10 60.8 °F /  16.0 °C 46.8 °F /  8.2 °C 30 in /  1014.8 hPa Calm     60 % 0 in /  0.0 mm
22:15 60.6 °F /  15.9 °C 46.8 °F /  8.2 °C 30 in /  1015.8 hPa Calm     60 % 0 in /  0.0 mm
22:20 60.6 °F /  15.9 °C 47.1 °F /  8.4 °C 30 in /  1015.8 hPa Calm     61 % 0 in /  0.0 mm
22:25 60.4 °F /  15.8 °C 46.9 °F /  8.3 °C 30 in /  1015.8 hPa Calm     61 % 0 in /  0.0 mm
22:30 60.3 °F /  15.7 °C 46.8 °F /  8.2 °C 30 in /  1015.8 hPa Calm     61 % 0 in /  0.0 mm
22:35 60.1 °F /  15.6 °C 46.6 °F /  8.1 °C 30 in /  1015.8 hPa Calm     61 % 0 in /  0.0 mm
22:40 60.1 °F /  15.6 °C 46.6 °F /  8.1 °C 30 in /  1015.8 hPa Calm     61 % 0 in /  0.0 mm
22:45 59.9 °F /  15.5 °C 46.8 °F /  8.2 °C 30 in /  1015.8 hPa Calm     62 % 0 in /  0.0 mm
22:50 59.5 °F /  15.3 °C 46.6 °F /  8.1 °C 30 in /  1015.8 hPa Calm     62 % 0 in /  0.0 mm
22:55 59.5 °F /  15.3 °C 46.6 °F /  8.1 °C 30 in /  1015.8 hPa Calm     62 % 0 in /  0.0 mm
23:00 59.4 °F /  15.2 °C 46.2 °F /  7.9 °C 30 in /  1014.8 hPa Calm     62 % 0 in /  0.0 mm
23:05 59.4 °F /  15.2 °C 46.8 °F /  8.2 °C 30 in /  1014.8 hPa Calm     63 % 0 in /  0.0 mm
23:10 59.2 °F /  15.1 °C 46.6 °F /  8.1 °C 30 in /  1014.8 hPa Calm     63 % 0 in /  0.0 mm
23:15 59 °F /  15.0 °C 46.4 °F /  8.0 °C 30 in /  1015.8 hPa Calm     63 % 0 in /  0.0 mm
23:20 59.2 °F /  15.1 °C 46.9 °F /  8.3 °C 30 in /  1015.8 hPa Calm     64 % 0 in /  0.0 mm
23:25 59 °F /  15.0 °C 46.8 °F /  8.2 °C 30 in /  1015.8 hPa Calm     64 % 0 in /  0.0 mm
23:30 59 °F /  15.0 °C 46.8 °F /  8.2 °C 30 in /  1015.8 hPa Calm     64 % 0 in /  0.0 mm
23:35 58.8 °F /  14.9 °C 46.8 °F /  8.2 °C 30 in /  1015.8 hPa Calm     64 % 0 in /  0.0 mm
23:40 58.5 °F /  14.7 °C 46.2 °F /  7.9 °C 30 in /  1015.8 hPa Calm     64 % 0 in /  0.0 mm
23:45 58.5 °F /  14.7 °C 46.2 °F /  7.9 °C 30 in /  1014.8 hPa Calm     64 % 0 in /  0.0 mm
23:50 58.3 °F /  14.6 °C 46.2 °F /  7.9 °C 30 in /  1014.8 hPa Calm     64 % 0 in /  0.0 mm
23:55 58.3 °F /  14.6 °C 46.2 °F /  7.9 °C 30 in /  1014.8 hPa Calm     64 % 0 in /  0.0 mm
Meteo Sesrovires
Elogis d' Weather Underground - 3.75 mb

Guio original per  Jim McMurry - jmcmurry@mwt.net Adaptat per a la plantilla per  Wim van der Kuil - Leuven-Template.eu

Trobareu la nostra informacio del temps tambe a:

Weather Underground

AWEKAS